Time;durP1;ratioP1;P1;durP2;ratioP2;P2;SDS_P1;SDS_P2;PMS_P1;PMS_P2;Temp;Humidity;BMP_temperature;BMP_pressure;BME280_temperature;BME280_humidity;BME280_pressure;Samples;Min_cycle;Max_cycle;Signal;HPM_P1;HPM_P2
2024/04/20 00:01:56;;;;;;;5.60;2.77;;;3.60;99.90;;;;;;5369546;26;20782;-64
2024/04/20 00:04:22;;;;;;;6.40;3.27;;;3.60;99.90;;;;;;5369383;26;20764;-63
2024/04/20 00:06:47;;;;;;;5.20;3.03;;;3.60;99.90;;;;;;5373620;26;20233;-63
2024/04/20 00:09:14;;;;;;;5.17;3.10;;;3.60;99.90;;;;;;5373905;26;20230;-63
2024/04/20 00:11:40;;;;;;;4.13;2.70;;;3.60;99.90;;;;;;5385773;26;20276;-63
2024/04/20 00:14:06;;;;;;;7.83;3.00;;;3.60;99.90;;;;;;5372926;26;20455;-63
2024/04/20 00:16:32;;;;;;;4.27;3.13;;;3.60;99.90;;;;;;5372876;26;20272;-63
2024/04/20 00:18:57;;;;;;;4.57;2.87;;;3.60;99.90;;;;;;5372865;26;20234;-64
2024/04/20 00:21:23;;;;;;;8.23;3.27;;;3.60;99.90;;;;;;5365918;26;20456;-63
2024/04/20 00:23:49;;;;;;;6.10;3.13;;;3.60;99.90;;;;;;5374083;26;20331;-63
2024/04/20 00:26:15;;;;;;;8.17;3.20;;;3.60;99.90;;;;;;5368664;26;20331;-63
2024/04/20 00:28:41;;;;;;;5.83;3.17;;;3.60;99.90;;;;;;5375793;26;20468;-63
2024/04/20 00:31:06;;;;;;;7.50;2.80;;;3.70;99.90;;;;;;5372753;26;20225;-63
2024/04/20 00:33:32;;;;;;;4.77;2.87;;;3.70;99.90;;;;;;5373491;26;20230;-63
2024/04/20 00:35:58;;;;;;;11.60;3.30;;;3.70;99.90;;;;;;5370476;26;20233;-64
2024/04/20 00:38:23;;;;;;;6.37;3.10;;;3.70;99.90;;;;;;5365519;26;20739;-62
2024/04/20 00:40:56;;;;;;;6.33;3.40;;;3.70;99.90;;;;;;5370521;26;20226;-63
2024/04/20 00:43:22;;;;;;;5.87;2.90;;;3.70;99.90;;;;;;5371185;26;20242;-63
2024/04/20 00:45:48;;;;;;;8.20;3.27;;;3.70;99.90;;;;;;5372070;26;20576;-64
2024/04/20 00:48:18;;;;;;;7.70;3.67;;;3.70;99.90;;;;;;5369893;26;20354;-63
2024/04/20 00:50:44;;;;;;;6.10;3.80;;;3.70;99.90;;;;;;5373796;26;20471;-63
2024/04/20 00:53:13;;;;;;;15.10;4.20;;;3.80;99.90;;;;;;5373525;26;20456;-64
2024/04/20 00:55:39;;;;;;;8.53;3.40;;;3.70;99.90;;;;;;5366506;26;20242;-63
2024/04/20 00:58:07;;;;;;;6.20;3.50;;;3.70;99.90;;;;;;5386115;26;20499;-63
2024/04/20 01:00:37;;;;;;;6.37;2.97;;;3.70;99.90;;;;;;5371025;26;20922;-63
2024/04/20 01:03:03;;;;;;;5.73;3.47;;;3.70;99.90;;;;;;5375481;26;20516;-63
2024/04/20 01:05:29;;;;;;;9.70;3.53;;;3.70;99.90;;;;;;5365785;26;20455;-63
2024/04/20 01:07:54;;;;;;;9.77;3.80;;;3.70;99.90;;;;;;5370392;26;20324;-63
2024/04/20 01:10:20;;;;;;;8.63;3.90;;;3.70;99.90;;;;;;5368998;26;21029;-63
2024/04/20 01:12:45;;;;;;;8.00;4.27;;;3.70;99.90;;;;;;5365740;26;20256;-64
2024/04/20 01:15:11;;;;;;;8.00;3.30;;;3.70;99.90;;;;;;5374606;26;20264;-64
2024/04/20 01:17:37;;;;;;;6.67;3.30;;;3.70;99.90;;;;;;5376107;26;20229;-63
2024/04/20 01:20:02;;;;;;;10.40;3.43;;;3.70;99.90;;;;;;5366011;26;20333;-63
2024/04/20 01:22:28;;;;;;;8.80;3.40;;;3.70;99.90;;;;;;5376865;26;20229;-63
2024/04/20 01:24:57;;;;;;;9.50;3.30;;;3.70;99.90;;;;;;5372991;26;20452;-63
2024/04/20 01:27:22;;;;;;;15.23;3.67;;;3.70;99.90;;;;;;5378628;26;20508;-63
2024/04/20 01:29:48;;;;;;;8.40;3.27;;;3.70;99.90;;;;;;5368275;26;20475;-64
2024/04/20 01:32:14;;;;;;;5.20;3.00;;;3.70;99.90;;;;;;5378808;26;20557;-63
2024/04/20 01:34:39;;;;;;;8.80;3.07;;;3.70;99.90;;;;;;5386329;26;20280;-63
2024/04/20 01:37:05;;;;;;;9.43;3.03;;;3.70;99.90;;;;;;5372283;26;20380;-62
2024/04/20 01:39:30;;;;;;;6.13;3.80;;;3.70;99.90;;;;;;5368081;26;20309;-63
2024/04/20 01:41:56;;;;;;;7.50;3.13;;;3.70;99.90;;;;;;5370775;26;20229;-63
2024/04/20 01:44:21;;;;;;;8.47;3.23;;;3.70;99.90;;;;;;5378240;26;20708;-63
2024/04/20 01:46:47;;;;;;;6.47;3.23;;;3.70;99.90;;;;;;5371637;26;20225;-64
2024/04/20 01:49:13;;;;;;;10.60;3.33;;;3.70;99.90;;;;;;5375226;26;20272;-63
2024/04/20 01:51:38;;;;;;;6.40;3.60;;;3.70;99.90;;;;;;5363297;26;20264;-63
2024/04/20 01:54:06;;;;;;;10.27;3.40;;;3.70;99.90;;;;;;5367421;26;20272;-62
2024/04/20 01:56:31;;;;;;;6.63;3.37;;;3.60;99.90;;;;;;5373284;26;20226;-63
2024/04/20 01:58:57;;;;;;;10.93;3.10;;;3.60;99.90;;;;;;5371456;26;20520;-63
2024/04/20 02:01:22;;;;;;;7.30;3.57;;;3.60;99.90;;;;;;5382264;26;20265;-63
2024/04/20 02:03:48;;;;;;;5.10;3.30;;;3.60;99.90;;;;;;5378198;26;20253;-63
2024/04/20 02:06:14;;;;;;;3.77;2.70;;;3.60;99.90;;;;;;5374702;26;20222;-63
2024/04/20 02:08:39;;;;;;;8.90;3.40;;;3.60;99.90;;;;;;5374641;26;20716;-63
2024/04/20 02:11:05;;;;;;;5.67;3.00;;;3.60;99.90;;;;;;5374227;26;20234;-63
2024/04/20 02:13:30;;;;;;;6.87;3.00;;;3.60;99.90;;;;;;5376961;26;20330;-63
2024/04/20 02:15:56;;;;;;;11.90;3.37;;;3.50;99.90;;;;;;5388659;26;20316;-63
2024/04/20 02:18:21;;;;;;;11.77;2.93;;;3.50;99.90;;;;;;5373858;26;20637;-63
2024/04/20 02:20:47;;;;;;;5.87;3.60;;;3.50;99.90;;;;;;5361537;26;20230;-64
2024/04/20 02:23:14;;;;;;;12.23;3.10;;;3.50;99.90;;;;;;5384647;26;20328;-63
2024/04/20 02:25:39;;;;;;;8.43;2.87;;;3.40;99.90;;;;;;5374532;26;20222;-63
2024/04/20 02:28:05;;;;;;;8.47;2.53;;;3.40;99.90;;;;;;5374029;26;20460;-61
2024/04/20 02:30:30;;;;;;;11.30;3.20;;;3.40;99.90;;;;;;5387044;26;20328;-63
2024/04/20 02:32:56;;;;;;;8.53;3.77;;;3.40;99.90;;;;;;5364987;26;20233;-63
2024/04/20 02:35:22;;;;;;;8.97;3.20;;;3.40;99.90;;;;;;5373393;26;20222;-63
2024/04/20 02:37:47;;;;;;;14.57;3.00;;;3.40;99.90;;;;;;5368838;26;20222;-62
2024/04/20 02:40:14;;;;;;;6.13;3.53;;;3.40;99.90;;;;;;5370470;26;20225;-63
2024/04/20 02:42:40;;;;;;;8.97;3.93;;;3.30;99.90;;;;;;5376430;26;20825;-63
2024/04/20 02:45:12;;;;;;;8.63;3.43;;;3.30;99.90;;;;;;5375656;26;20550;-63
2024/04/20 02:47:37;;;;;;;5.80;4.03;;;3.30;99.90;;;;;;5381439;26;20561;-63
2024/04/20 02:50:03;;;;;;;10.10;4.17;;;3.40;99.90;;;;;;5374221;26;20574;-63
2024/04/20 02:52:29;;;;;;;9.90;3.30;;;3.40;99.90;;;;;;5364624;26;20226;-63
2024/04/20 02:54:55;;;;;;;5.23;2.97;;;3.40;99.90;;;;;;5363270;26;20467;-63
2024/04/20 02:57:21;;;;;;;6.40;3.13;;;3.40;99.90;;;;;;5383126;26;20704;-63
2024/04/20 02:59:46;;;;;;;11.33;4.37;;;3.40;99.90;;;;;;5381943;26;20327;-63
2024/04/20 03:02:12;;;;;;;13.50;4.17;;;3.40;99.90;;;;;;5374653;26;20460;-63
2024/04/20 03:04:38;;;;;;;6.60;3.20;;;3.40;99.90;;;;;;5374274;26;20221;-63
2024/04/20 03:07:03;;;;;;;7.60;2.97;;;3.40;99.90;;;;;;5374692;26;20440;-63
2024/04/20 03:09:29;;;;;;;6.37;2.97;;;3.30;99.90;;;;;;5367842;26;20230;-62
2024/04/20 03:11:55;;;;;;;6.20;2.80;;;3.30;99.90;;;;;;5379314;26;20236;-63
2024/04/20 03:14:20;;;;;;;7.03;3.50;;;3.30;99.90;;;;;;5375040;26;20923;-63
2024/04/20 03:16:46;;;;;;;9.17;3.47;;;3.30;99.90;;;;;;5372237;26;20271;-63
2024/04/20 03:19:12;;;;;;;7.13;3.37;;;3.30;99.90;;;;;;5369084;26;20274;-63
2024/04/20 03:21:37;;;;;;;7.23;2.57;;;3.20;99.90;;;;;;5365180;26;20230;-63
2024/04/20 03:24:03;;;;;;;5.87;2.50;;;3.20;99.90;;;;;;5374274;26;20218;-63
2024/04/20 03:26:28;;;;;;;6.90;3.17;;;3.20;99.90;;;;;;5372768;26;21102;-63
2024/04/20 03:28:54;;;;;;;9.20;2.87;;;3.20;99.90;;;;;;5368459;26;20594;-64
2024/04/20 03:31:20;;;;;;;9.67;2.90;;;3.20;99.90;;;;;;5376786;26;20234;-62
2024/04/20 03:33:45;;;;;;;7.00;3.00;;;3.10;99.90;;;;;;5375584;26;20701;-63
2024/04/20 03:36:11;;;;;;;6.43;3.10;;;3.20;99.90;;;;;;5372939;26;20468;-63
2024/04/20 03:38:37;;;;;;;11.57;3.40;;;3.20;99.90;;;;;;5363498;26;20281;-63
2024/04/20 03:41:03;;;;;;;9.73;2.83;;;3.10;99.90;;;;;;5369837;26;20246;-62
2024/04/20 03:43:29;;;;;;;9.03;3.13;;;3.20;99.90;;;;;;5374084;26;20277;-63
2024/04/20 03:45:55;;;;;;;4.77;3.10;;;3.20;99.90;;;;;;5366640;26;20454;-62
2024/04/20 03:48:21;;;;;;;6.50;3.47;;;3.20;99.90;;;;;;5370085;26;20281;-62
2024/04/20 03:50:56;;;;;;;8.13;3.07;;;3.10;99.90;;;;;;5372801;26;20646;-62
2024/04/20 03:53:23;;;;;;;11.40;3.00;;;3.10;99.90;;;;;;5371722;26;20455;-63
2024/04/20 03:55:49;;;;;;;5.73;3.00;;;3.10;99.90;;;;;;5368971;26;20475;-63
2024/04/20 03:58:15;;;;;;;6.80;2.40;;;3.10;99.90;;;;;;5358223;26;20463;-63
2024/04/20 04:00:40;;;;;;;8.33;2.97;;;3.10;99.90;;;;;;5365722;26;20565;-63
2024/04/20 04:03:09;;;;;;;8.50;3.23;;;3.00;99.90;;;;;;5369146;26;20261;-63
2024/04/20 04:05:35;;;;;;;14.63;3.03;;;3.00;99.90;;;;;;5382957;26;20857;-63
2024/04/20 04:08:00;;;;;;;5.10;2.27;;;3.00;99.90;;;;;;5371851;26;20452;-63
2024/04/20 04:10:26;;;;;;;8.07;2.63;;;3.00;99.90;;;;;;5370675;26;20335;-63
2024/04/20 04:12:51;;;;;;;6.70;3.53;;;3.00;99.90;;;;;;5374683;26;20650;-63
2024/04/20 04:15:17;;;;;;;4.93;2.80;;;3.00;99.90;;;;;;5371551;26;20218;-60
2024/04/20 04:17:42;;;;;;;6.73;2.97;;;3.00;99.90;;;;;;5373491;26;20221;-63
2024/04/20 04:20:08;;;;;;;5.20;2.93;;;3.00;99.90;;;;;;5373259;26;20287;-63
2024/04/20 04:22:34;;;;;;;4.53;2.83;;;3.00;99.90;;;;;;5374961;26;20376;-63
2024/04/20 04:24:59;;;;;;;4.70;2.87;;;3.00;99.90;;;;;;5374365;26;20373;-63
2024/04/20 04:27:25;;;;;;;14.20;3.20;;;3.00;99.90;;;;;;5373164;26;20230;-63
2024/04/20 04:29:51;;;;;;;5.43;2.70;;;3.00;99.90;;;;;;5371168;26;20829;-63
2024/04/20 04:32:16;;;;;;;5.93;2.70;;;3.00;99.90;;;;;;5372911;26;20222;-62
2024/04/20 04:34:42;;;;;;;3.93;3.10;;;3.10;99.90;;;;;;5373203;26;20234;-63
2024/04/20 04:37:07;;;;;;;11.20;3.83;;;3.10;99.90;;;;;;5367607;26;20234;-63
2024/04/20 04:39:33;;;;;;;3.80;2.60;;;3.10;99.90;;;;;;5371660;26;20280;-63
2024/04/20 04:41:59;;;;;;;6.33;3.10;;;3.10;99.90;;;;;;5373529;26;20222;-63
2024/04/20 04:44:24;;;;;;;6.20;2.90;;;3.10;99.90;;;;;;5373890;26;21609;-63
2024/04/20 04:46:50;;;;;;;11.30;3.30;;;3.10;99.90;;;;;;5372559;26;20298;-63
2024/04/20 04:49:15;;;;;;;11.43;3.23;;;3.10;99.90;;;;;;5368129;26;20245;-63
2024/04/20 04:51:41;;;;;;;8.10;2.77;;;3.10;99.90;;;;;;5370696;26;20229;-63
2024/04/20 04:54:07;;;;;;;8.63;3.40;;;3.10;99.90;;;;;;5365355;26;20237;-63
2024/04/20 04:56:32;;;;;;;8.33;2.70;;;3.10;99.90;;;;;;5372618;26;20272;-63
2024/04/20 04:58:59;;;;;;;10.10;2.97;;;3.10;99.90;;;;;;5369255;26;20272;-63
2024/04/20 05:01:25;;;;;;;4.77;2.50;;;3.10;99.90;;;;;;5368889;26;20783;-63
2024/04/20 05:03:50;;;;;;;7.00;2.60;;;3.10;99.90;;;;;;5374094;26;20456;-63
2024/04/20 05:06:16;;;;;;;5.60;2.60;;;3.20;99.90;;;;;;5361620;26;20272;-62
2024/04/20 05:08:42;;;;;;;13.20;2.57;;;3.20;99.90;;;;;;5364945;26;20273;-63
2024/04/20 05:11:09;;;;;;;3.90;2.70;;;3.20;99.90;;;;;;5373506;26;20764;-63
2024/04/20 05:13:35;;;;;;;8.03;2.83;;;3.10;99.90;;;;;;5379446;26;20241;-63
2024/04/20 05:16:03;;;;;;;5.03;2.40;;;3.20;99.90;;;;;;5387096;26;20508;-62
2024/04/20 05:18:29;;;;;;;10.63;2.43;;;3.10;99.90;;;;;;5376282;26;20229;-62
2024/04/20 05:20:54;;;;;;;3.10;2.37;;;3.10;99.90;;;;;;5367450;26;20544;-63
2024/04/20 05:23:20;;;;;;;10.53;2.60;;;3.10;99.90;;;;;;5373824;26;20343;-63
2024/04/20 05:25:45;;;;;;;3.93;2.37;;;3.10;99.90;;;;;;5371378;26;20306;-62
2024/04/20 05:28:11;;;;;;;3.13;2.00;;;3.10;99.90;;;;;;5363847;26;20230;-63
2024/04/20 05:30:37;;;;;;;2.17;2.03;;;3.10;99.90;;;;;;5360637;26;20217;-63
2024/04/20 05:33:03;;;;;;;4.17;2.20;;;3.10;99.90;;;;;;5372956;26;20272;-63
2024/04/20 05:35:28;;;;;;;3.33;2.37;;;3.10;99.90;;;;;;5374882;26;20230;-63
2024/04/20 05:37:54;;;;;;;7.23;1.87;;;3.10;99.90;;;;;;5372976;26;20578;-63
2024/04/20 05:40:19;;;;;;;2.30;1.97;;;3.10;99.90;;;;;;5362272;26;20317;-63
2024/04/20 05:42:45;;;;;;;4.10;2.07;;;3.20;99.90;;;;;;5364330;26;20230;-63
2024/04/20 05:45:13;;;;;;;3.23;1.90;;;3.20;99.90;;;;;;5371072;26;20218;-63
2024/04/20 05:47:39;;;;;;;2.33;1.80;;;3.20;99.90;;;;;;5369323;26;20300;-63
2024/04/20 05:50:06;;;;;;;2.87;2.07;;;3.20;99.90;;;;;;5364403;26;20536;-63
2024/04/20 05:52:32;;;;;;;3.00;1.60;;;3.30;99.90;;;;;;5364679;26;20306;-63
2024/04/20 05:54:57;;;;;;;2.27;2.13;;;3.30;99.90;;;;;;5372358;26;20456;-63
2024/04/20 05:57:23;;;;;;;2.23;2.03;;;3.40;99.90;;;;;;5372047;26;20969;-63
2024/04/20 05:59:48;;;;;;;3.37;2.17;;;3.40;99.90;;;;;;5371027;26;20246;-63
2024/04/20 06:02:14;;;;;;;2.20;2.00;;;3.50;99.90;;;;;;5369601;26;20265;-63
2024/04/20 06:04:40;;;;;;;2.50;1.93;;;3.50;99.90;;;;;;5376420;26;20316;-63
2024/04/20 06:07:06;;;;;;;1.73;1.63;;;3.50;99.90;;;;;;5375834;26;20767;-62
2024/04/20 06:09:31;;;;;;;1.67;1.57;;;3.50;99.90;;;;;;5367858;26;20565;-62
2024/04/20 06:11:57;;;;;;;4.27;2.33;;;3.50;99.90;;;;;;5375993;26;20230;-63
2024/04/20 06:14:22;;;;;;;1.80;1.70;;;3.50;99.90;;;;;;5365371;26;20234;-63
2024/04/20 06:16:48;;;;;;;4.20;3.17;;;3.50;99.90;;;;;;5374741;26;20276;-62
2024/04/20 06:19:14;;;;;;;1.73;1.63;;;3.50;99.90;;;;;;5370774;26;20234;-63
2024/04/20 06:21:39;;;;;;;1.50;1.40;;;3.60;99.90;;;;;;5390989;26;20946;-63
2024/04/20 06:24:06;;;;;;;2.20;2.00;;;3.60;99.90;;;;;;5385892;26;20220;-63
2024/04/20 06:26:32;;;;;;;1.50;1.40;;;3.60;99.90;;;;;;5364193;26;20281;-63
2024/04/20 06:28:58;;;;;;;2.10;1.50;;;3.60;99.90;;;;;;5378612;26;20907;-63
2024/04/20 06:31:23;;;;;;;5.63;1.77;;;3.70;99.90;;;;;;5387135;26;20826;-63
2024/04/20 06:33:49;;;;;;;1.80;1.70;;;3.70;99.90;;;;;;5385845;26;20442;-63
2024/04/20 06:36:14;;;;;;;1.80;1.70;;;3.80;99.90;;;;;;5364373;26;20234;-63
2024/04/20 06:38:40;;;;;;;2.00;1.67;;;3.80;99.90;;;;;;5377190;26;20302;-64
2024/04/20 06:41:06;;;;;;;2.07;1.70;;;3.90;99.90;;;;;;5375053;26;20315;-63
2024/04/20 06:43:31;;;;;;;2.70;1.90;;;3.90;99.90;;;;;;5374938;26;21014;-63
2024/04/20 06:45:57;;;;;;;1.50;1.40;;;4.00;99.90;;;;;;5371611;26;20261;-63
2024/04/20 06:48:22;;;;;;;1.50;1.40;;;4.00;99.90;;;;;;5384757;26;20230;-63
2024/04/20 06:50:48;;;;;;;1.80;1.70;;;4.00;99.90;;;;;;5370689;26;20241;-64
2024/04/20 06:53:14;;;;;;;2.17;1.50;;;4.10;99.90;;;;;;5379081;26;20272;-63
2024/04/20 06:55:39;;;;;;;5.63;1.70;;;4.10;99.90;;;;;;5388160;26;20740;-63
2024/04/20 06:58:05;;;;;;;1.60;1.50;;;4.20;99.90;;;;;;5372409;26;20238;-63
2024/04/20 07:00:30;;;;;;;3.03;1.67;;;4.30;99.90;;;;;;5368898;26;20577;-64
2024/04/20 07:02:56;;;;;;;1.60;1.50;;;4.40;99.90;;;;;;5382021;26;20281;-63
2024/04/20 07:05:22;;;;;;;1.77;1.67;;;4.50;99.90;;;;;;5385492;26;20716;-63
2024/04/20 07:07:47;;;;;;;2.87;2.23;;;4.60;99.90;;;;;;5393214;26;20238;-64
2024/04/20 07:10:13;;;;;;;2.10;1.67;;;4.60;99.90;;;;;;5368022;26;20277;-64
2024/04/20 07:12:38;;;;;;;1.70;1.50;;;4.60;99.90;;;;;;5373989;26;20280;-63
2024/04/20 07:15:04;;;;;;;1.60;1.50;;;4.60;99.90;;;;;;5375879;26;20263;-63
2024/04/20 07:17:30;;;;;;;2.20;1.87;;;4.60;99.90;;;;;;5381350;26;20314;-62
2024/04/20 07:19:57;;;;;;;1.83;1.73;;;4.60;99.90;;;;;;5381053;26;21012;-63
2024/04/20 07:22:23;;;;;;;1.87;1.70;;;4.70;99.90;;;;;;5370261;26;20638;-63
2024/04/20 07:24:49;;;;;;;1.40;1.30;;;4.80;99.90;;;;;;5379465;26;20516;-63
2024/04/20 07:27:14;;;;;;;1.40;1.30;;;4.80;99.90;;;;;;5371510;26;20289;-63
2024/04/20 07:29:40;;;;;;;2.47;1.97;;;4.90;99.90;;;;;;5372522;26;20260;-63
2024/04/20 07:32:05;;;;;;;1.73;1.63;;;4.90;99.90;;;;;;5374724;26;20214;-63
2024/04/20 07:34:31;;;;;;;1.83;1.20;;;4.90;99.90;;;;;;5364866;26;20229;-63
2024/04/20 07:36:57;;;;;;;1.30;1.20;;;4.90;99.90;;;;;;5427021;26;21082;-63
2024/04/20 07:39:23;;;;;;;1.80;1.70;;;4.90;99.90;;;;;;5375427;26;20242;-63
2024/04/20 07:41:49;;;;;;;3.17;1.80;;;4.80;99.90;;;;;;5382030;26;20548;-63
2024/04/20 07:44:15;;;;;;;1.57;1.47;;;4.90;99.90;;;;;;5371896;26;20265;-63
2024/04/20 07:46:44;;;;;;;1.87;1.60;;;5.00;99.90;;;;;;5373957;26;20268;-63
2024/04/20 07:49:10;;;;;;;3.73;1.47;;;5.10;99.90;;;;;;5372949;26;20233;-64
2024/04/20 07:51:35;;;;;;;1.40;1.30;;;5.20;99.90;;;;;;5372651;26;20463;-64
2024/04/20 07:54:01;;;;;;;1.73;1.30;;;5.20;99.90;;;;;;5372009;26;20233;-64
2024/04/20 07:56:27;;;;;;;1.60;1.50;;;5.30;99.90;;;;;;5370625;26;20237;-64
2024/04/20 07:58:52;;;;;;;2.37;1.43;;;5.30;99.90;;;;;;5372492;26;21318;-63
2024/04/20 08:01:18;;;;;;;3.20;1.60;;;5.20;99.20;;;;;;5366263;26;20301;-63
2024/04/20 08:03:44;;;;;;;1.53;1.43;;;5.20;99.90;;;;;;5380365;26;20272;-62
2024/04/20 08:06:10;;;;;;;1.80;1.70;;;5.20;99.90;;;;;;5359063;26;20327;-63
2024/04/20 08:08:36;;;;;;;8.13;3.33;;;5.20;99.90;;;;;;5381579;26;20452;-63
2024/04/20 08:11:02;;;;;;;7.93;6.00;;;5.20;99.90;;;;;;5373766;26;20218;-63
2024/04/20 08:13:29;;;;;;;5.90;2.83;;;5.30;99.90;;;;;;5383793;26;20435;-63
2024/04/20 08:15:55;;;;;;;2.70;2.23;;;5.40;99.90;;;;;;5364419;26;20230;-63
2024/04/20 08:18:21;;;;;;;2.30;2.10;;;5.40;99.90;;;;;;5374508;26;20529;-63
2024/04/20 08:20:53;;;;;;;3.17;2.00;;;5.40;99.90;;;;;;5378441;26;20356;-63
2024/04/20 08:23:18;;;;;;;2.93;2.47;;;5.40;99.90;;;;;;5369425;26;20508;-63
2024/04/20 08:25:44;;;;;;;2.43;1.60;;;5.40;99.90;;;;;;5383036;26;20449;-63
2024/04/20 08:28:10;;;;;;;1.60;1.50;;;5.30;99.90;;;;;;5372207;26;20222;-63
2024/04/20 08:30:35;;;;;;;2.77;1.83;;;5.20;99.90;;;;;;5370627;26;20452;-63
2024/04/20 08:33:01;;;;;;;2.10;1.77;;;5.10;99.90;;;;;;5377436;26;20230;-63
2024/04/20 08:35:26;;;;;;;2.10;1.83;;;4.90;99.90;;;;;;5358358;26;20273;-63
2024/04/20 08:37:52;;;;;;;6.80;2.10;;;4.90;99.90;;;;;;5373689;26;20842;-63
2024/04/20 08:40:18;;;;;;;2.37;1.70;;;4.80;99.90;;;;;;5373027;26;20324;-63
2024/04/20 08:42:43;;;;;;;2.30;1.80;;;4.80;99.90;;;;;;5376495;26;20228;-64
2024/04/20 08:45:14;;;;;;;1.63;1.53;;;4.80;99.90;;;;;;5362667;26;20277;-62
2024/04/20 08:47:43;;;;;;;4.20;2.20;;;4.80;99.90;;;;;;5384485;26;20259;-63
2024/04/20 08:50:09;;;;;;;2.73;2.00;;;4.90;99.90;;;;;;5394024;26;20450;-60
2024/04/20 08:52:37;;;;;;;3.30;2.80;;;5.00;99.90;;;;;;5366480;26;20507;-63
2024/04/20 08:55:05;;;;;;;3.20;2.77;;;5.00;99.90;;;;;;5374676;26;21001;-63
2024/04/20 08:57:36;;;;;;;5.20;3.63;;;5.00;99.90;;;;;;5369764;26;20461;-61
2024/04/20 09:00:02;;;;;;;4.33;2.00;;;5.00;99.90;;;;;;5374094;26;20450;-63
2024/04/20 09:02:31;;;;;;;2.37;2.17;;;5.00;99.10;;;;;;5378214;26;20515;-63
2024/04/20 09:04:57;;;;;;;4.33;2.47;;;4.90;92.40;;;;;;5387365;26;20456;-62
2024/04/20 09:07:24;;;;;;;5.80;2.43;;;4.70;94.80;;;;;;5372748;26;20508;-63
2024/04/20 09:09:50;;;;;;;7.43;4.03;;;4.70;99.80;;;;;;5370827;26;20512;-63
2024/04/20 09:12:16;;;;;;;3.97;2.67;;;4.70;99.80;;;;;;5374351;26;20513;-63
2024/04/20 09:14:41;;;;;;;4.50;3.00;;;4.70;99.30;;;;;;5371269;26;20528;-62
2024/04/20 09:17:07;;;;;;;3.23;2.40;;;4.60;99.80;;;;;;5371603;26;20810;-63
2024/04/20 09:19:33;;;;;;;2.33;2.13;;;4.60;99.90;;;;;;5376830;26;20224;-63
2024/04/20 09:22:09;;;;;;;2.60;2.40;;;4.50;99.90;;;;;;5374354;26;20280;-63
2024/04/20 09:24:35;;;;;;;2.90;2.63;;;4.50;99.90;;;;;;5361405;26;20228;-64
2024/04/20 09:27:01;;;;;;;4.63;3.07;;;4.50;99.90;;;;;;5370261;26;20452;-63
2024/04/20 09:29:27;;;;;;;2.97;2.50;;;4.50;99.90;;;;;;5382872;26;20576;-63
2024/04/20 09:31:53;;;;;;;5.43;2.27;;;4.60;99.90;;;;;;5370209;26;20521;-63
2024/04/20 09:34:25;;;;;;;2.73;2.53;;;4.70;99.90;;;;;;5376642;26;20893;-63
2024/04/20 09:36:54;;;;;;;3.30;2.63;;;4.80;99.90;;;;;;5368301;26;20472;-63
2024/04/20 09:39:20;;;;;;;3.90;2.67;;;4.90;99.90;;;;;;5382268;26;20459;-63
2024/04/20 09:41:51;;;;;;;4.27;2.73;;;5.10;99.90;;;;;;5368721;26;20593;-63
2024/04/20 09:44:18;;;;;;;4.03;2.50;;;5.30;99.90;;;;;;5371770;26;20508;-63
2024/04/20 09:46:48;;;;;;;6.77;2.07;;;5.40;98.70;;;;;;5371544;26;21006;-63
2024/04/20 09:49:14;;;;;;;3.20;2.33;;;5.50;97.10;;;;;;5382979;26;20460;-63
2024/04/20 09:52:00;;;;;;;9.93;2.50;;;5.60;95.40;;;;;;5393724;26;20454;-64
2024/04/20 09:54:30;;;;;;;2.83;2.50;;;5.80;99.90;;;;;;5376983;26;20468;-63
2024/04/20 09:56:58;;;;;;;2.63;2.30;;;6.10;96.80;;;;;;5376359;26;20510;-63
2024/04/20 09:59:24;;;;;;;2.60;2.40;;;6.40;96.50;;;;;;5370317;26;20582;-64
2024/04/20 10:01:50;;;;;;;3.90;2.63;;;6.60;94.30;;;;;;5385470;26;20511;-64
2024/04/20 10:04:18;;;;;;;2.73;2.53;;;6.70;93.10;;;;;;5393898;26;20512;-63
2024/04/20 10:06:45;;;;;;;4.67;2.70;;;6.70;92.20;;;;;;5373185;26;20547;-63
2024/04/20 10:09:11;;;;;;;3.83;2.90;;;6.60;94.40;;;;;;5381279;26;20453;-63
2024/04/20 10:11:37;;;;;;;5.33;2.83;;;6.60;91.90;;;;;;5375121;26;20515;-63
2024/04/20 10:14:03;;;;;;;6.70;2.67;;;6.50;84.80;;;;;;5376605;26;21021;-63
2024/04/20 10:16:31;;;;;;;3.87;2.70;;;6.40;85.30;;;;;;5371966;26;20241;-63
2024/04/20 10:18:56;;;;;;;4.77;2.47;;;6.40;87.20;;;;;;5370433;26;21161;-64
2024/04/20 10:21:23;;;;;;;4.80;2.87;;;6.40;84.90;;;;;;5374258;26;20455;-63
2024/04/20 10:23:49;;;;;;;3.40;3.07;;;6.30;83.90;;;;;;5376584;26;20456;-64
2024/04/20 10:26:27;;;;;;;8.87;2.53;;;6.40;87.60;;;;;;5371322;26;20452;-64
2024/04/20 10:29:07;;;;;;;5.07;2.53;;;6.70;88.70;;;;;;5377954;26;20229;-63
2024/04/20 10:31:33;;;;;;;8.90;2.43;;;6.90;71.40;;;;;;5380467;26;20448;-63
2024/04/20 10:33:59;;;;;;;3.60;2.50;;;6.90;71.50;;;;;;5379908;26;21114;-64
2024/04/20 10:36:28;;;;;;;2.50;2.30;;;6.90;73.80;;;;;;5373102;26;20528;-63
2024/04/20 10:39:07;;;;;;;2.70;2.13;;;7.00;71.90;;;;;;5373592;26;20276;-63
2024/04/20 10:41:39;;;;;;;4.47;2.63;;;6.90;70.00;;;;;;5372818;26;20468;-63
2024/04/20 10:44:15;;;;;;;6.30;2.80;;;7.00;72.70;;;;;;5373382;26;21017;-63
2024/04/20 10:46:53;;;;;;;4.07;2.57;;;7.10;70.90;;;;;;5366257;26;20518;-63
2024/04/20 10:49:20;;;;;;;3.83;2.30;;;7.40;75.70;;;;;;5366807;26;20637;-64
2024/04/20 10:52:04;;;;;;;4.27;2.40;;;7.70;72.20;;;;;;5364432;26;20510;-63
2024/04/20 10:54:31;;;;;;;7.00;2.20;;;7.70;67.50;;;;;;5374536;26;21018;-64
2024/04/20 10:56:58;;;;;;;1.90;1.80;;;7.60;64.90;;;;;;5374710;26;20835;-63
2024/04/20 10:59:24;;;;;;;4.00;2.30;;;7.40;64.30;;;;;;5367688;26;20512;-64
2024/04/20 11:01:49;;;;;;;3.30;2.37;;;7.40;64.80;;;;;;5367804;26;20467;-63
2024/04/20 11:04:15;;;;;;;3.93;2.43;;;7.50;67.60;;;;;;5377416;26;20222;-64
2024/04/20 11:06:41;;;;;;;3.53;1.90;;;7.50;66.50;;;;;;5372125;26;20248;-63
2024/04/20 11:09:10;;;;;;;2.20;2.00;;;7.60;64.60;;;;;;5369556;26;20238;-64
2024/04/20 11:11:36;;;;;;;4.90;2.30;;;7.60;65.00;;;;;;5360646;26;21018;-63
2024/04/20 11:14:03;;;;;;;2.03;1.90;;;7.80;66.30;;;;;;5384086;26;20460;-63
2024/04/20 11:16:30;;;;;;;3.80;1.93;;;7.90;65.90;;;;;;5367019;26;22115;-64
2024/04/20 11:18:55;;;;;;;4.40;2.43;;;8.20;64.80;;;;;;5369874;26;20528;-63
2024/04/20 11:21:21;;;;;;;2.93;1.80;;;8.40;63.70;;;;;;5368140;26;20456;-63
2024/04/20 11:23:46;;;;;;;8.57;1.93;;;8.60;63.00;;;;;;5369302;26;20227;-63
2024/04/20 11:26:12;;;;;;;4.93;1.90;;;8.70;60.80;;;;;;5401063;26;20233;-64
2024/04/20 11:28:40;;;;;;;3.03;2.57;;;8.90;59.50;;;;;;5374032;26;20272;-63
2024/04/20 11:31:09;;;;;;;1.90;1.80;;;9.10;57.70;;;;;;5371584;26;20265;-64
2024/04/20 11:33:35;;;;;;;1.73;1.40;;;9.20;57.70;;;;;;5370481;26;20579;-63
2024/04/20 11:36:04;;;;;;;3.10;1.80;;;9.40;57.60;;;;;;5373146;26;20802;-63
2024/04/20 11:38:30;;;;;;;2.00;1.80;;;9.50;57.50;;;;;;5368614;26;20530;-64
2024/04/20 11:40:56;;;;;;;2.23;1.80;;;9.60;56.70;;;;;;5368313;26;20477;-64
2024/04/20 11:43:24;;;;;;;1.90;1.80;;;9.60;55.70;;;;;;5374352;26;20901;-63
2024/04/20 11:45:53;;;;;;;1.67;1.43;;;9.60;55.70;;;;;;5375109;26;20297;-63
2024/04/20 11:48:29;;;;;;;1.50;1.40;;;9.70;55.00;;;;;;5368898;26;20464;-64
2024/04/20 11:51:25;;;;;;;2.23;1.47;;;9.90;54.10;;;;;;5371745;26;20610;-64
2024/04/20 11:56:41;;;;;;;3.33;1.60;;;9.90;53.80;;;;;;5364702;26;20566;-64
2024/04/20 11:59:11;;;;;;;4.73;1.80;;;9.60;52.80;;;;;;5372355;26;20464;-64
2024/04/20 12:01:37;;;;;;;2.40;1.90;;;9.40;53.50;;;;;;5364658;26;20327;-64
2024/04/20 12:04:05;;;;;;;2.17;1.97;;;9.10;53.90;;;;;;5374952;26;20856;-64
2024/04/20 12:06:31;;;;;;;3.37;2.10;;;8.80;53.90;;;;;;5373812;26;20230;-63
2024/04/20 12:08:56;;;;;;;3.03;1.73;;;8.50;55.00;;;;;;5370891;26;20532;-64
2024/04/20 12:11:22;;;;;;;1.60;1.50;;;8.30;56.40;;;;;;5370317;26;20229;-64
2024/04/20 12:13:48;;;;;;;1.90;1.77;;;8.20;57.50;;;;;;5369650;26;20241;-64
2024/04/20 12:16:15;;;;;;;2.13;1.93;;;8.20;58.30;;;;;;5368440;26;20269;-64
2024/04/20 12:18:42;;;;;;;5.73;2.40;;;8.10;58.80;;;;;;5375078;26;20297;-64
2024/04/20 12:21:12;;;;;;;2.60;1.77;;;8.10;57.80;;;;;;5380596;26;20505;-64
2024/04/20 12:23:38;;;;;;;2.80;2.30;;;8.10;57.20;;;;;;5365001;26;20603;-64
2024/04/20 12:26:06;;;;;;;3.10;1.90;;;8.10;56.80;;;;;;5374827;26;20476;-64
2024/04/20 12:28:31;;;;;;;4.33;1.53;;;8.20;57.60;;;;;;5387958;26;20277;-64
2024/04/20 12:30:59;;;;;;;2.10;1.90;;;8.40;58.00;;;;;;5374348;26;20460;-64
2024/04/20 12:33:25;;;;;;;3.37;1.80;;;8.50;57.10;;;;;;5365966;26;20645;-64
2024/04/20 12:35:50;;;;;;;3.90;1.97;;;8.50;56.00;;;;;;5378319;26;21123;-64
2024/04/20 12:38:16;;;;;;;2.60;1.90;;;8.40;55.40;;;;;;5372384;26;20323;-63
2024/04/20 12:40:42;;;;;;;4.43;1.60;;;8.30;56.00;;;;;;5374059;26;20293;-63
2024/04/20 12:43:07;;;;;;;6.20;1.93;;;8.60;56.00;;;;;;5362055;26;20979;-64
2024/04/20 12:45:33;;;;;;;2.20;1.70;;;9.10;54.80;;;;;;5374291;26;20293;-63
2024/04/20 12:47:59;;;;;;;5.30;1.90;;;9.60;54.40;;;;;;5373197;26;20864;-63
2024/04/20 12:50:25;;;;;;;3.50;1.50;;;10.20;53.40;;;;;;5368227;26;20283;-64
2024/04/20 12:52:51;;;;;;;3.00;1.70;;;10.60;52.80;;;;;;5373612;26;20459;-64
2024/04/20 12:55:17;;;;;;;1.50;1.40;;;10.80;51.70;;;;;;5372293;26;20986;-64